sensor_id;sensor_type;location;lat;lon;timestamp;temperature;humidity
51327;DHT22;37412;52.836;6.362;2023-05-07T00:00:35;14.50;99.90
51327;DHT22;37412;52.836;6.362;2023-05-07T00:03:21;14.40;99.90
51327;DHT22;37412;52.836;6.362;2023-05-07T00:06:07;14.50;99.90
51327;DHT22;37412;52.836;6.362;2023-05-07T00:08:53;14.50;99.90
51327;DHT22;37412;52.836;6.362;2023-05-07T00:11:39;14.50;99.90
51327;DHT22;37412;52.836;6.362;2023-05-07T00:14:25;14.50;99.90
51327;DHT22;37412;52.836;6.362;2023-05-07T00:17:11;14.50;99.90
51327;DHT22;37412;52.836;6.362;2023-05-07T00:19:57;14.50;99.90
51327;DHT22;37412;52.836;6.362;2023-05-07T00:22:42;14.40;99.90
51327;DHT22;37412;52.836;6.362;2023-05-07T00:25:28;14.40;99.90
51327;DHT22;37412;52.836;6.362;2023-05-07T00:28:14;14.40;99.90
51327;DHT22;37412;52.836;6.362;2023-05-07T00:31:00;14.40;99.90
51327;DHT22;37412;52.836;6.362;2023-05-07T00:33:46;14.40;99.90
51327;DHT22;37412;52.836;6.362;2023-05-07T00:36:32;14.30;99.90
51327;DHT22;37412;52.836;6.362;2023-05-07T00:39:18;14.30;99.90
51327;DHT22;37412;52.836;6.362;2023-05-07T00:42:04;14.30;99.90
51327;DHT22;37412;52.836;6.362;2023-05-07T00:44:49;14.20;99.90
51327;DHT22;37412;52.836;6.362;2023-05-07T00:47:35;14.20;99.90
51327;DHT22;37412;52.836;6.362;2023-05-07T00:50:21;14.20;99.90
51327;DHT22;37412;52.836;6.362;2023-05-07T00:53:07;14.10;99.90
51327;DHT22;37412;52.836;6.362;2023-05-07T00:55:53;14.10;99.90
51327;DHT22;37412;52.836;6.362;2023-05-07T00:58:40;14.10;99.90
51327;DHT22;37412;52.836;6.362;2023-05-07T01:01:26;14.00;99.90
51327;DHT22;37412;52.836;6.362;2023-05-07T01:04:12;14.00;99.90
51327;DHT22;37412;52.836;6.362;2023-05-07T01:06:58;13.90;99.90
51327;DHT22;37412;52.836;6.362;2023-05-07T01:09:44;13.90;99.90
51327;DHT22;37412;52.836;6.362;2023-05-07T01:12:30;13.90;99.90
51327;DHT22;37412;52.836;6.362;2023-05-07T01:15:16;13.90;99.90
51327;DHT22;37412;52.836;6.362;2023-05-07T01:18:02;13.80;99.90
51327;DHT22;37412;52.836;6.362;2023-05-07T01:20:48;13.80;99.90
51327;DHT22;37412;52.836;6.362;2023-05-07T01:23:34;13.80;99.90
51327;DHT22;37412;52.836;6.362;2023-05-07T01:26:21;13.70;99.90
51327;DHT22;37412;52.836;6.362;2023-05-07T01:29:07;13.80;99.90
51327;DHT22;37412;52.836;6.362;2023-05-07T01:31:53;13.70;99.90
51327;DHT22;37412;52.836;6.362;2023-05-07T01:34:40;13.70;99.90
51327;DHT22;37412;52.836;6.362;2023-05-07T01:37:26;13.70;99.90
51327;DHT22;37412;52.836;6.362;2023-05-07T01:40:12;13.70;99.90
51327;DHT22;37412;52.836;6.362;2023-05-07T01:42:58;13.70;99.90
51327;DHT22;37412;52.836;6.362;2023-05-07T01:45:45;13.60;99.90
51327;DHT22;37412;52.836;6.362;2023-05-07T01:48:32;13.60;99.90
51327;DHT22;37412;52.836;6.362;2023-05-07T01:51:18;13.50;99.90
51327;DHT22;37412;52.836;6.362;2023-05-07T01:54:06;13.40;99.90
51327;DHT22;37412;52.836;6.362;2023-05-07T01:56:52;13.40;99.90
51327;DHT22;37412;52.836;6.362;2023-05-07T01:59:38;13.40;99.90
51327;DHT22;37412;52.836;6.362;2023-05-07T02:02:24;13.50;99.90
51327;DHT22;37412;52.836;6.362;2023-05-07T02:05:09;13.40;99.90
51327;DHT22;37412;52.836;6.362;2023-05-07T02:07:55;13.50;99.90
51327;DHT22;37412;52.836;6.362;2023-05-07T02:10:41;13.30;99.90
51327;DHT22;37412;52.836;6.362;2023-05-07T02:13:32;13.20;99.90
51327;DHT22;37412;52.836;6.362;2023-05-07T02:16:19;13.20;99.90
51327;DHT22;37412;52.836;6.362;2023-05-07T02:19:05;13.20;99.90
51327;DHT22;37412;52.836;6.362;2023-05-07T02:21:51;13.20;99.90
51327;DHT22;37412;52.836;6.362;2023-05-07T02:24:37;13.10;99.90
51327;DHT22;37412;52.836;6.362;2023-05-07T02:27:23;13.00;99.90
51327;DHT22;37412;52.836;6.362;2023-05-07T02:30:09;12.90;99.90
51327;DHT22;37412;52.836;6.362;2023-05-07T02:32:55;12.90;99.90
51327;DHT22;37412;52.836;6.362;2023-05-07T02:35:41;12.80;99.90
51327;DHT22;37412;52.836;6.362;2023-05-07T02:38:27;12.80;99.90
51327;DHT22;37412;52.836;6.362;2023-05-07T02:41:13;12.70;99.90
51327;DHT22;37412;52.836;6.362;2023-05-07T02:43:59;12.70;99.90
51327;DHT22;37412;52.836;6.362;2023-05-07T02:46:45;12.70;99.90
51327;DHT22;37412;52.836;6.362;2023-05-07T02:49:30;12.60;99.90
51327;DHT22;37412;52.836;6.362;2023-05-07T02:52:16;12.60;99.90
51327;DHT22;37412;52.836;6.362;2023-05-07T02:55:02;12.60;99.90
51327;DHT22;37412;52.836;6.362;2023-05-07T02:57:48;12.60;99.90
51327;DHT22;37412;52.836;6.362;2023-05-07T03:00:34;12.60;99.90
51327;DHT22;37412;52.836;6.362;2023-05-07T03:03:20;12.60;99.90
51327;DHT22;37412;52.836;6.362;2023-05-07T03:06:06;12.50;99.90
51327;DHT22;37412;52.836;6.362;2023-05-07T03:08:52;12.50;99.90
51327;DHT22;37412;52.836;6.362;2023-05-07T03:11:38;12.40;99.90
51327;DHT22;37412;52.836;6.362;2023-05-07T03:14:24;12.40;99.90
51327;DHT22;37412;52.836;6.362;2023-05-07T03:17:10;12.30;99.90
51327;DHT22;37412;52.836;6.362;2023-05-07T03:19:55;12.30;99.90
51327;DHT22;37412;52.836;6.362;2023-05-07T03:22:41;12.30;99.90
51327;DHT22;37412;52.836;6.362;2023-05-07T03:25:27;12.20;99.90
51327;DHT22;37412;52.836;6.362;2023-05-07T03:28:13;12.40;99.90
51327;DHT22;37412;52.836;6.362;2023-05-07T03:30:59;12.20;99.90
51327;DHT22;37412;52.836;6.362;2023-05-07T03:36:37;12.10;99.90
51327;DHT22;37412;52.836;6.362;2023-05-07T03:39:23;12.10;99.90
51327;DHT22;37412;52.836;6.362;2023-05-07T03:42:09;12.10;99.90
51327;DHT22;37412;52.836;6.362;2023-05-07T03:44:55;12.00;99.90
51327;DHT22;37412;52.836;6.362;2023-05-07T03:47:41;12.00;99.90
51327;DHT22;37412;52.836;6.362;2023-05-07T03:50:27;12.00;99.90
51327;DHT22;37412;52.836;6.362;2023-05-07T03:53:13;11.90;99.90
51327;DHT22;37412;52.836;6.362;2023-05-07T03:55:58;12.00;99.90
51327;DHT22;37412;52.836;6.362;2023-05-07T03:58:44;12.00;99.90
51327;DHT22;37412;52.836;6.362;2023-05-07T04:01:30;12.00;99.90
51327;DHT22;37412;52.836;6.362;2023-05-07T04:04:16;11.90;99.90
51327;DHT22;37412;52.836;6.362;2023-05-07T04:07:02;11.90;99.90
51327;DHT22;37412;52.836;6.362;2023-05-07T04:09:48;11.90;99.90
51327;DHT22;37412;52.836;6.362;2023-05-07T04:12:34;11.80;99.90
51327;DHT22;37412;52.836;6.362;2023-05-07T04:15:20;11.80;99.90
51327;DHT22;37412;52.836;6.362;2023-05-07T04:18:06;11.80;99.90
51327;DHT22;37412;52.836;6.362;2023-05-07T04:20:52;11.80;99.90
51327;DHT22;37412;52.836;6.362;2023-05-07T04:23:37;11.80;99.90
51327;DHT22;37412;52.836;6.362;2023-05-07T04:26:23;11.80;99.90
51327;DHT22;37412;52.836;6.362;2023-05-07T04:29:09;11.80;99.90
51327;DHT22;37412;52.836;6.362;2023-05-07T04:31:55;11.80;99.90
51327;DHT22;37412;52.836;6.362;2023-05-07T04:34:42;11.70;99.90
51327;DHT22;37412;52.836;6.362;2023-05-07T04:37:27;11.80;99.90
51327;DHT22;37412;52.836;6.362;2023-05-07T04:40:16;11.70;99.90
51327;DHT22;37412;52.836;6.362;2023-05-07T04:43:02;11.80;99.90
51327;DHT22;37412;52.836;6.362;2023-05-07T04:45:49;11.80;99.90
51327;DHT22;37412;52.836;6.362;2023-05-07T04:48:35;11.70;99.90
51327;DHT22;37412;52.836;6.362;2023-05-07T04:51:21;11.70;99.90
51327;DHT22;37412;52.836;6.362;2023-05-07T04:54:07;11.70;99.90
51327;DHT22;37412;52.836;6.362;2023-05-07T04:56:53;11.70;99.90
51327;DHT22;37412;52.836;6.362;2023-05-07T04:59:39;11.70;99.90
51327;DHT22;37412;52.836;6.362;2023-05-07T05:02:25;11.70;99.90
51327;DHT22;37412;52.836;6.362;2023-05-07T05:05:11;11.80;99.90
51327;DHT22;37412;52.836;6.362;2023-05-07T05:07:57;11.70;99.90
51327;DHT22;37412;52.836;6.362;2023-05-07T05:10:43;11.80;99.90
51327;DHT22;37412;52.836;6.362;2023-05-07T05:13:29;11.80;99.90
51327;DHT22;37412;52.836;6.362;2023-05-07T05:16:15;11.80;99.90
51327;DHT22;37412;52.836;6.362;2023-05-07T05:19:01;11.80;99.90
51327;DHT22;37412;52.836;6.362;2023-05-07T05:21:47;11.80;99.90
51327;DHT22;37412;52.836;6.362;2023-05-07T05:24:33;11.80;99.90
51327;DHT22;37412;52.836;6.362;2023-05-07T05:27:19;11.90;99.90
51327;DHT22;37412;52.836;6.362;2023-05-07T05:30:05;11.90;99.90
51327;DHT22;37412;52.836;6.362;2023-05-07T05:32:51;12.00;99.90
51327;DHT22;37412;52.836;6.362;2023-05-07T05:35:37;12.10;99.90
51327;DHT22;37412;52.836;6.362;2023-05-07T05:38:23;12.10;99.90
51327;DHT22;37412;52.836;6.362;2023-05-07T05:41:08;12.10;99.90
51327;DHT22;37412;52.836;6.362;2023-05-07T05:43:54;12.10;99.90
51327;DHT22;37412;52.836;6.362;2023-05-07T05:46:40;12.10;99.90
51327;DHT22;37412;52.836;6.362;2023-05-07T05:49:26;12.10;99.90
51327;DHT22;37412;52.836;6.362;2023-05-07T05:52:12;12.10;99.90
51327;DHT22;37412;52.836;6.362;2023-05-07T05:54:59;12.10;99.90
51327;DHT22;37412;52.836;6.362;2023-05-07T05:57:45;12.10;99.90
51327;DHT22;37412;52.836;6.362;2023-05-07T06:00:31;12.00;99.90
51327;DHT22;37412;52.836;6.362;2023-05-07T06:03:17;11.90;99.90
51327;DHT22;37412;52.836;6.362;2023-05-07T06:06:03;12.00;99.90
51327;DHT22;37412;52.836;6.362;2023-05-07T06:08:49;12.00;99.90
51327;DHT22;37412;52.836;6.362;2023-05-07T06:11:35;12.00;99.90
51327;DHT22;37412;52.836;6.362;2023-05-07T06:14:20;12.00;99.90
51327;DHT22;37412;52.836;6.362;2023-05-07T06:17:06;12.10;99.90
51327;DHT22;37412;52.836;6.362;2023-05-07T06:19:52;12.00;99.90
51327;DHT22;37412;52.836;6.362;2023-05-07T06:22:38;12.00;99.90
51327;DHT22;37412;52.836;6.362;2023-05-07T06:25:24;12.00;99.90
51327;DHT22;37412;52.836;6.362;2023-05-07T06:28:10;12.00;99.90
51327;DHT22;37412;52.836;6.362;2023-05-07T06:31:10;12.00;99.90
51327;DHT22;37412;52.836;6.362;2023-05-07T06:33:56;12.10;99.90
51327;DHT22;37412;52.836;6.362;2023-05-07T06:36:42;12.10;99.90
51327;DHT22;37412;52.836;6.362;2023-05-07T06:39:28;12.20;99.90
51327;DHT22;37412;52.836;6.362;2023-05-07T06:42:14;12.20;99.90
51327;DHT22;37412;52.836;6.362;2023-05-07T06:44:59;12.30;99.90
51327;DHT22;37412;52.836;6.362;2023-05-07T06:47:47;12.30;99.90
51327;DHT22;37412;52.836;6.362;2023-05-07T06:50:32;12.40;99.90
51327;DHT22;37412;52.836;6.362;2023-05-07T06:53:18;12.50;99.90
51327;DHT22;37412;52.836;6.362;2023-05-07T06:56:04;12.60;99.90
51327;DHT22;37412;52.836;6.362;2023-05-07T06:58:50;12.70;99.90
51327;DHT22;37412;52.836;6.362;2023-05-07T07:01:36;12.70;99.90
51327;DHT22;37412;52.836;6.362;2023-05-07T07:04:23;12.70;99.90
51327;DHT22;37412;52.836;6.362;2023-05-07T07:07:09;12.70;99.90
51327;DHT22;37412;52.836;6.362;2023-05-07T07:09:55;12.60;99.90
51327;DHT22;37412;52.836;6.362;2023-05-07T07:12:41;12.60;99.90
51327;DHT22;37412;52.836;6.362;2023-05-07T07:15:27;12.70;99.90
51327;DHT22;37412;52.836;6.362;2023-05-07T07:18:13;12.90;99.90
51327;DHT22;37412;52.836;6.362;2023-05-07T07:20:59;13.00;99.90
51327;DHT22;37412;52.836;6.362;2023-05-07T07:23:44;13.10;99.90
51327;DHT22;37412;52.836;6.362;2023-05-07T07:26:30;13.30;99.90
51327;DHT22;37412;52.836;6.362;2023-05-07T07:29:16;13.60;99.90
51327;DHT22;37412;52.836;6.362;2023-05-07T07:32:04;13.90;99.90
51327;DHT22;37412;52.836;6.362;2023-05-07T07:34:50;14.30;99.90
51327;DHT22;37412;52.836;6.362;2023-05-07T07:37:36;14.60;99.90
51327;DHT22;37412;52.836;6.362;2023-05-07T07:40:22;14.60;99.90
51327;DHT22;37412;52.836;6.362;2023-05-07T07:43:08;14.50;99.90
51327;DHT22;37412;52.836;6.362;2023-05-07T07:45:54;14.60;99.90
51327;DHT22;37412;52.836;6.362;2023-05-07T07:48:40;14.60;99.90
51327;DHT22;37412;52.836;6.362;2023-05-07T07:51:26;14.70;99.90
51327;DHT22;37412;52.836;6.362;2023-05-07T07:54:12;14.70;99.90
51327;DHT22;37412;52.836;6.362;2023-05-07T07:56:58;14.70;99.90
51327;DHT22;37412;52.836;6.362;2023-05-07T07:59:43;14.80;99.90
51327;DHT22;37412;52.836;6.362;2023-05-07T08:02:29;14.90;99.90
51327;DHT22;37412;52.836;6.362;2023-05-07T08:05:15;14.90;99.90
51327;DHT22;37412;52.836;6.362;2023-05-07T08:08:01;14.80;99.90
51327;DHT22;37412;52.836;6.362;2023-05-07T08:10:47;14.80;99.90
51327;DHT22;37412;52.836;6.362;2023-05-07T08:13:36;14.70;99.90
51327;DHT22;37412;52.836;6.362;2023-05-07T08:16:22;14.80;99.90
51327;DHT22;37412;52.836;6.362;2023-05-07T08:19:08;14.80;99.90
51327;DHT22;37412;52.836;6.362;2023-05-07T08:21:54;14.90;99.90
51327;DHT22;37412;52.836;6.362;2023-05-07T08:24:40;14.90;99.90
51327;DHT22;37412;52.836;6.362;2023-05-07T08:27:26;14.90;99.90
51327;DHT22;37412;52.836;6.362;2023-05-07T08:30:12;15.00;99.90
51327;DHT22;37412;52.836;6.362;2023-05-07T08:32:59;15.00;99.90
51327;DHT22;37412;52.836;6.362;2023-05-07T08:35:45;15.10;99.90
51327;DHT22;37412;52.836;6.362;2023-05-07T08:38:31;15.20;99.90
51327;DHT22;37412;52.836;6.362;2023-05-07T08:41:17;15.30;99.90
51327;DHT22;37412;52.836;6.362;2023-05-07T08:44:03;15.40;99.90
51327;DHT22;37412;52.836;6.362;2023-05-07T08:46:52;15.40;99.90
51327;DHT22;37412;52.836;6.362;2023-05-07T08:49:39;15.50;99.90
51327;DHT22;37412;52.836;6.362;2023-05-07T08:52:26;15.90;99.90
51327;DHT22;37412;52.836;6.362;2023-05-07T08:55:12;16.30;99.90
51327;DHT22;37412;52.836;6.362;2023-05-07T08:57:58;16.40;99.90
51327;DHT22;37412;52.836;6.362;2023-05-07T09:00:44;16.30;99.90
51327;DHT22;37412;52.836;6.362;2023-05-07T09:03:30;16.40;99.90
51327;DHT22;37412;52.836;6.362;2023-05-07T09:06:16;16.40;99.90
51327;DHT22;37412;52.836;6.362;2023-05-07T09:09:03;16.60;99.90
51327;DHT22;37412;52.836;6.362;2023-05-07T09:11:56;16.70;99.90
51327;DHT22;37412;52.836;6.362;2023-05-07T09:14:42;16.80;99.90
51327;DHT22;37412;52.836;6.362;2023-05-07T09:17:28;16.60;99.90
51327;DHT22;37412;52.836;6.362;2023-05-07T09:20:14;16.90;99.90
51327;DHT22;37412;52.836;6.362;2023-05-07T09:22:59;17.00;99.90
51327;DHT22;37412;52.836;6.362;2023-05-07T09:25:45;17.10;99.90
51327;DHT22;37412;52.836;6.362;2023-05-07T09:28:31;17.30;99.90
51327;DHT22;37412;52.836;6.362;2023-05-07T09:31:17;17.30;99.90
51327;DHT22;37412;52.836;6.362;2023-05-07T09:34:04;17.30;99.90
51327;DHT22;37412;52.836;6.362;2023-05-07T09:36:50;17.30;99.90
51327;DHT22;37412;52.836;6.362;2023-05-07T09:39:43;17.30;99.90
51327;DHT22;37412;52.836;6.362;2023-05-07T09:42:29;17.40;99.90
51327;DHT22;37412;52.836;6.362;2023-05-07T09:45:15;17.40;99.90
51327;DHT22;37412;52.836;6.362;2023-05-07T09:48:01;17.60;99.90
51327;DHT22;37412;52.836;6.362;2023-05-07T09:50:51;17.80;99.90
51327;DHT22;37412;52.836;6.362;2023-05-07T09:53:38;18.00;99.90
51327;DHT22;37412;52.836;6.362;2023-05-07T09:56:25;18.00;99.90
51327;DHT22;37412;52.836;6.362;2023-05-07T09:59:12;18.10;99.90
51327;DHT22;37412;52.836;6.362;2023-05-07T10:01:59;18.00;99.90
51327;DHT22;37412;52.836;6.362;2023-05-07T10:04:46;17.90;99.90
51327;DHT22;37412;52.836;6.362;2023-05-07T10:07:35;18.00;99.90
51327;DHT22;37412;52.836;6.362;2023-05-07T10:10:21;18.00;99.90
51327;DHT22;37412;52.836;6.362;2023-05-07T10:13:07;18.10;99.90
51327;DHT22;37412;52.836;6.362;2023-05-07T10:15:56;18.10;99.90
51327;DHT22;37412;52.836;6.362;2023-05-07T10:18:42;18.20;99.90
51327;DHT22;37412;52.836;6.362;2023-05-07T10:21:28;18.00;99.90
51327;DHT22;37412;52.836;6.362;2023-05-07T10:24:22;18.10;99.90
51327;DHT22;37412;52.836;6.362;2023-05-07T10:27:11;18.10;99.90
51327;DHT22;37412;52.836;6.362;2023-05-07T10:32:45;18.30;99.90
51327;DHT22;37412;52.836;6.362;2023-05-07T10:35:32;18.50;99.90
51327;DHT22;37412;52.836;6.362;2023-05-07T10:38:21;18.50;99.90
51327;DHT22;37412;52.836;6.362;2023-05-07T10:41:07;18.70;99.90
51327;DHT22;37412;52.836;6.362;2023-05-07T10:43:53;18.80;99.90
51327;DHT22;37412;52.836;6.362;2023-05-07T10:46:42;18.90;99.90
51327;DHT22;37412;52.836;6.362;2023-05-07T10:49:29;19.00;99.90
51327;DHT22;37412;52.836;6.362;2023-05-07T10:52:20;19.10;99.90
51327;DHT22;37412;52.836;6.362;2023-05-07T10:58:29;19.20;99.90
51327;DHT22;37412;52.836;6.362;2023-05-07T11:01:15;19.20;99.90
51327;DHT22;37412;52.836;6.362;2023-05-07T11:04:21;19.30;99.90
51327;DHT22;37412;52.836;6.362;2023-05-07T11:07:24;19.50;99.90
51327;DHT22;37412;52.836;6.362;2023-05-07T11:10:11;19.40;99.90
51327;DHT22;37412;52.836;6.362;2023-05-07T11:12:57;19.50;99.90
51327;DHT22;37412;52.836;6.362;2023-05-07T11:15:47;19.50;99.90
51327;DHT22;37412;52.836;6.362;2023-05-07T11:18:53;19.60;99.90
51327;DHT22;37412;52.836;6.362;2023-05-07T11:21:41;19.60;99.90
51327;DHT22;37412;52.836;6.362;2023-05-07T11:24:27;19.70;99.90
51327;DHT22;37412;52.836;6.362;2023-05-07T11:27:23;19.60;99.90
51327;DHT22;37412;52.836;6.362;2023-05-07T11:30:09;19.70;99.90
51327;DHT22;37412;52.836;6.362;2023-05-07T11:32:56;19.60;99.90
51327;DHT22;37412;52.836;6.362;2023-05-07T11:35:42;19.70;99.90
51327;DHT22;37412;52.836;6.362;2023-05-07T11:38:35;19.60;99.90
51327;DHT22;37412;52.836;6.362;2023-05-07T11:41:21;19.60;99.90
51327;DHT22;37412;52.836;6.362;2023-05-07T11:44:08;19.70;99.90
51327;DHT22;37412;52.836;6.362;2023-05-07T11:46:54;19.70;99.90
51327;DHT22;37412;52.836;6.362;2023-05-07T11:49:42;19.80;99.90
51327;DHT22;37412;52.836;6.362;2023-05-07T11:52:28;20.10;99.90
51327;DHT22;37412;52.836;6.362;2023-05-07T11:55:18;20.00;99.90
51327;DHT22;37412;52.836;6.362;2023-05-07T11:58:04;20.00;99.90
51327;DHT22;37412;52.836;6.362;2023-05-07T12:00:51;20.20;99.90
51327;DHT22;37412;52.836;6.362;2023-05-07T12:03:40;20.20;99.90
51327;DHT22;37412;52.836;6.362;2023-05-07T12:06:36;20.20;99.90
51327;DHT22;37412;52.836;6.362;2023-05-07T12:09:23;20.20;99.90
51327;DHT22;37412;52.836;6.362;2023-05-07T12:12:18;20.20;99.90
51327;DHT22;37412;52.836;6.362;2023-05-07T12:15:04;20.20;99.90
51327;DHT22;37412;52.836;6.362;2023-05-07T12:17:50;20.00;99.90
51327;DHT22;37412;52.836;6.362;2023-05-07T12:20:38;20.10;99.90
51327;DHT22;37412;52.836;6.362;2023-05-07T12:23:25;20.10;99.90
51327;DHT22;37412;52.836;6.362;2023-05-07T12:26:11;20.20;99.90
51327;DHT22;37412;52.836;6.362;2023-05-07T12:28:57;20.40;99.90
51327;DHT22;37412;52.836;6.362;2023-05-07T12:31:43;20.60;99.90
51327;DHT22;37412;52.836;6.362;2023-05-07T12:34:30;20.60;99.90
51327;DHT22;37412;52.836;6.362;2023-05-07T12:37:23;20.60;99.90
51327;DHT22;37412;52.836;6.362;2023-05-07T12:40:10;20.60;99.90
51327;DHT22;37412;52.836;6.362;2023-05-07T12:42:59;20.40;99.90
51327;DHT22;37412;52.836;6.362;2023-05-07T12:45:48;20.60;99.90
51327;DHT22;37412;52.836;6.362;2023-05-07T12:48:36;20.80;99.90
51327;DHT22;37412;52.836;6.362;2023-05-07T12:51:23;21.10;99.90
51327;DHT22;37412;52.836;6.362;2023-05-07T12:54:09;21.40;99.90
51327;DHT22;37412;52.836;6.362;2023-05-07T12:57:06;21.40;99.90
51327;DHT22;37412;52.836;6.362;2023-05-07T12:59:57;21.30;99.90
51327;DHT22;37412;52.836;6.362;2023-05-07T13:02:45;21.40;99.90
51327;DHT22;37412;52.836;6.362;2023-05-07T13:05:32;21.30;99.90
51327;DHT22;37412;52.836;6.362;2023-05-07T13:08:26;21.20;99.90
51327;DHT22;37412;52.836;6.362;2023-05-07T13:11:12;20.90;99.90
51327;DHT22;37412;52.836;6.362;2023-05-07T13:13:58;20.70;99.90
51327;DHT22;37412;52.836;6.362;2023-05-07T13:16:45;20.70;99.90
51327;DHT22;37412;52.836;6.362;2023-05-07T13:19:35;20.70;99.90
51327;DHT22;37412;52.836;6.362;2023-05-07T13:22:23;20.60;99.90
51327;DHT22;37412;52.836;6.362;2023-05-07T13:25:09;20.40;99.90
51327;DHT22;37412;52.836;6.362;2023-05-07T13:27:56;20.30;99.90
51327;DHT22;37412;52.836;6.362;2023-05-07T13:30:42;20.10;99.90
51327;DHT22;37412;52.836;6.362;2023-05-07T13:33:28;20.00;99.90
51327;DHT22;37412;52.836;6.362;2023-05-07T13:36:14;19.80;99.90
51327;DHT22;37412;52.836;6.362;2023-05-07T13:39:00;19.60;99.90
51327;DHT22;37412;52.836;6.362;2023-05-07T13:41:46;19.60;99.90
51327;DHT22;37412;52.836;6.362;2023-05-07T13:44:35;19.50;99.90
51327;DHT22;37412;52.836;6.362;2023-05-07T13:47:21;19.40;99.90
51327;DHT22;37412;52.836;6.362;2023-05-07T13:50:10;19.50;99.90
51327;DHT22;37412;52.836;6.362;2023-05-07T13:52:57;19.50;99.90
51327;DHT22;37412;52.836;6.362;2023-05-07T13:55:43;19.60;99.90
51327;DHT22;37412;52.836;6.362;2023-05-07T13:58:30;19.50;99.90
51327;DHT22;37412;52.836;6.362;2023-05-07T14:01:16;19.30;99.90
51327;DHT22;37412;52.836;6.362;2023-05-07T14:04:02;19.30;99.90
51327;DHT22;37412;52.836;6.362;2023-05-07T14:06:48;19.10;99.90
51327;DHT22;37412;52.836;6.362;2023-05-07T14:09:34;19.10;99.90
51327;DHT22;37412;52.836;6.362;2023-05-07T14:12:19;19.10;99.90
51327;DHT22;37412;52.836;6.362;2023-05-07T14:15:06;19.20;99.90
51327;DHT22;37412;52.836;6.362;2023-05-07T14:17:52;19.10;99.90
51327;DHT22;37412;52.836;6.362;2023-05-07T14:20:38;19.20;99.90
51327;DHT22;37412;52.836;6.362;2023-05-07T14:23:24;19.20;99.90
51327;DHT22;37412;52.836;6.362;2023-05-07T14:26:12;19.30;99.90
51327;DHT22;37412;52.836;6.362;2023-05-07T14:28:58;19.40;99.90
51327;DHT22;37412;52.836;6.362;2023-05-07T14:31:44;19.50;99.90
51327;DHT22;37412;52.836;6.362;2023-05-07T14:34:31;19.50;99.90
51327;DHT22;37412;52.836;6.362;2023-05-07T14:37:17;19.50;99.90
51327;DHT22;37412;52.836;6.362;2023-05-07T14:40:05;19.50;99.90
51327;DHT22;37412;52.836;6.362;2023-05-07T14:42:51;19.40;99.90
51327;DHT22;37412;52.836;6.362;2023-05-07T14:45:37;19.30;99.90
51327;DHT22;37412;52.836;6.362;2023-05-07T14:48:23;19.30;99.90
51327;DHT22;37412;52.836;6.362;2023-05-07T14:51:09;19.40;99.90
51327;DHT22;37412;52.836;6.362;2023-05-07T14:53:55;19.50;99.90
51327;DHT22;37412;52.836;6.362;2023-05-07T14:56:41;19.50;99.90
51327;DHT22;37412;52.836;6.362;2023-05-07T14:59:27;19.80;99.90
51327;DHT22;37412;52.836;6.362;2023-05-07T15:02:13;20.10;99.90
51327;DHT22;37412;52.836;6.362;2023-05-07T15:04:59;20.30;99.90
51327;DHT22;37412;52.836;6.362;2023-05-07T15:07:45;20.40;99.90
51327;DHT22;37412;52.836;6.362;2023-05-07T15:10:33;20.50;99.90
51327;DHT22;37412;52.836;6.362;2023-05-07T15:13:25;20.30;99.90
51327;DHT22;37412;52.836;6.362;2023-05-07T15:16:11;20.20;99.90
51327;DHT22;37412;52.836;6.362;2023-05-07T15:18:57;20.10;99.90
51327;DHT22;37412;52.836;6.362;2023-05-07T15:21:43;20.20;99.90
51327;DHT22;37412;52.836;6.362;2023-05-07T15:24:29;20.20;99.90
51327;DHT22;37412;52.836;6.362;2023-05-07T15:27:15;20.30;99.90
51327;DHT22;37412;52.836;6.362;2023-05-07T15:30:02;20.20;99.90
51327;DHT22;37412;52.836;6.362;2023-05-07T15:32:48;20.00;99.90
51327;DHT22;37412;52.836;6.362;2023-05-07T15:35:35;19.90;99.90
51327;DHT22;37412;52.836;6.362;2023-05-07T15:38:21;19.90;99.90
51327;DHT22;37412;52.836;6.362;2023-05-07T15:41:25;19.90;99.90
51327;DHT22;37412;52.836;6.362;2023-05-07T15:44:14;19.90;99.90
51327;DHT22;37412;52.836;6.362;2023-05-07T15:47:03;19.90;99.90
51327;DHT22;37412;52.836;6.362;2023-05-07T15:49:49;19.90;99.90
51327;DHT22;37412;52.836;6.362;2023-05-07T15:52:35;19.80;99.90
51327;DHT22;37412;52.836;6.362;2023-05-07T15:55:21;19.80;99.90
51327;DHT22;37412;52.836;6.362;2023-05-07T15:58:07;19.90;99.90
51327;DHT22;37412;52.836;6.362;2023-05-07T16:00:53;19.90;99.90
51327;DHT22;37412;52.836;6.362;2023-05-07T16:03:39;19.80;99.90
51327;DHT22;37412;52.836;6.362;2023-05-07T16:06:25;19.70;99.90
51327;DHT22;37412;52.836;6.362;2023-05-07T16:09:12;19.50;99.90
51327;DHT22;37412;52.836;6.362;2023-05-07T16:11:59;19.40;99.90
51327;DHT22;37412;52.836;6.362;2023-05-07T16:14:45;19.30;99.90
51327;DHT22;37412;52.836;6.362;2023-05-07T16:17:31;19.30;99.90
51327;DHT22;37412;52.836;6.362;2023-05-07T16:20:16;19.30;99.90
51327;DHT22;37412;52.836;6.362;2023-05-07T16:23:04;19.30;99.90
51327;DHT22;37412;52.836;6.362;2023-05-07T16:25:50;19.30;99.90
51327;DHT22;37412;52.836;6.362;2023-05-07T16:28:36;19.30;99.90
51327;DHT22;37412;52.836;6.362;2023-05-07T16:31:22;19.30;99.90
51327;DHT22;37412;52.836;6.362;2023-05-07T16:34:07;19.30;99.90
51327;DHT22;37412;52.836;6.362;2023-05-07T16:36:53;19.30;99.90
51327;DHT22;37412;52.836;6.362;2023-05-07T16:39:39;19.40;99.90
51327;DHT22;37412;52.836;6.362;2023-05-07T16:42:25;19.40;99.90
51327;DHT22;37412;52.836;6.362;2023-05-07T16:45:11;19.50;99.90
51327;DHT22;37412;52.836;6.362;2023-05-07T16:47:57;19.30;99.90
51327;DHT22;37412;52.836;6.362;2023-05-07T16:50:43;19.40;99.90
51327;DHT22;37412;52.836;6.362;2023-05-07T16:53:29;19.30;99.90
51327;DHT22;37412;52.836;6.362;2023-05-07T16:56:15;19.30;99.90
51327;DHT22;37412;52.836;6.362;2023-05-07T16:59:00;19.30;99.90
51327;DHT22;37412;52.836;6.362;2023-05-07T17:01:46;19.30;99.90
51327;DHT22;37412;52.836;6.362;2023-05-07T17:04:32;19.30;99.90
51327;DHT22;37412;52.836;6.362;2023-05-07T17:07:18;19.30;99.90
51327;DHT22;37412;52.836;6.362;2023-05-07T17:10:04;19.30;99.90
51327;DHT22;37412;52.836;6.362;2023-05-07T17:12:51;19.30;99.90
51327;DHT22;37412;52.836;6.362;2023-05-07T17:15:36;19.30;99.90
51327;DHT22;37412;52.836;6.362;2023-05-07T17:18:22;19.30;99.90
51327;DHT22;37412;52.836;6.362;2023-05-07T17:21:08;19.30;99.90
51327;DHT22;37412;52.836;6.362;2023-05-07T17:23:54;19.30;99.90
51327;DHT22;37412;52.836;6.362;2023-05-07T17:26:40;19.40;99.90
51327;DHT22;37412;52.836;6.362;2023-05-07T17:29:28;19.30;99.90
51327;DHT22;37412;52.836;6.362;2023-05-07T17:32:14;19.20;99.90
51327;DHT22;37412;52.836;6.362;2023-05-07T17:35:00;19.20;99.90
51327;DHT22;37412;52.836;6.362;2023-05-07T17:37:46;19.10;99.90
51327;DHT22;37412;52.836;6.362;2023-05-07T17:40:37;19.10;99.90